Time;durP1;ratioP1;P1;durP2;ratioP2;P2;SDS_P1;SDS_P2;PMS_P1;PMS_P2;Temp;Humidity;BMP_temperature;BMP_pressure;BME280_temperature;BME280_humidity;BME280_pressure;Samples;Min_cycle;Max_cycle;Signal;HPM_P1;HPM_P2
2023/04/23 00:00:20;;;;;;;3.92;2.47;;;;;;;;;;4937612;28;20038;-76
2023/04/23 00:02:48;;;;;;;2.53;2.08;;;;;;;;;;4935011;28;20039;-75
2023/04/23 00:05:15;;;;;;;5.18;2.33;;;;;;;;;;4937365;28;20051;-75
2023/04/23 00:07:41;;;;;;;3.03;2.45;;;;;;;;;;4937030;28;20027;-75
2023/04/23 00:10:08;;;;;;;3.45;2.15;;;;;;;;;;4936875;28;20033;-75
2023/04/23 00:12:34;;;;;;;3.55;2.30;;;;;;;;;;4937315;28;20031;-75
2023/04/23 00:15:01;;;;;;;4.20;2.67;;;;;;;;;;4935367;28;20043;-75
2023/04/23 00:17:27;;;;;;;6.22;2.55;;;;;;;;;;4938378;28;20027;-76
2023/04/23 00:19:53;;;;;;;2.72;2.33;;;;;;;;;;4937416;28;20604;-76
2023/04/23 00:22:19;;;;;;;3.13;2.25;;;;;;;;;;4934159;28;20062;-76
2023/04/23 00:24:45;;;;;;;2.97;2.35;;;;;;;;;;4939611;28;20106;-75
2023/04/23 00:27:11;;;;;;;2.50;2.03;;;;;;;;;;4931571;28;20043;-75
2023/04/23 00:29:37;;;;;;;3.50;2.40;;;;;;;;;;4935543;28;20398;-75
2023/04/23 00:32:03;;;;;;;2.92;2.47;;;;;;;;;;4932750;28;20035;-75
2023/04/23 00:34:29;;;;;;;2.80;2.47;;;;;;;;;;4933247;28;20489;-75
2023/04/23 00:36:55;;;;;;;4.00;2.50;;;;;;;;;;4936450;28;20516;-75
2023/04/23 00:39:21;;;;;;;5.28;2.58;;;;;;;;;;4935973;28;20031;-75
2023/04/23 00:41:48;;;;;;;3.90;2.25;;;;;;;;;;4934194;28;20441;-75
2023/04/23 00:44:14;;;;;;;4.22;2.30;;;;;;;;;;4932225;28;20410;-75
2023/04/23 00:46:40;;;;;;;3.53;2.30;;;;;;;;;;4936264;28;20436;-75
2023/04/23 00:49:06;;;;;;;3.20;1.95;;;;;;;;;;4935731;28;20027;-75
2023/04/23 00:51:32;;;;;;;3.55;2.28;;;;;;;;;;4937901;28;20065;-75
2023/04/23 00:53:58;;;;;;;3.05;2.20;;;;;;;;;;4937398;28;20027;-76
2023/04/23 00:56:24;;;;;;;3.88;2.30;;;;;;;;;;4933908;28;20157;-75
2023/04/23 00:58:51;;;;;;;2.75;2.00;;;;;;;;;;4934327;28;20140;-75
2023/04/23 01:01:19;;;;;;;3.55;2.28;;;;;;;;;;4935582;28;20058;-76
2023/04/23 01:03:46;;;;;;;3.42;2.72;;;;;;;;;;4933535;28;20034;-75
2023/04/23 01:06:12;;;;;;;3.45;2.25;;;;;;;;;;4938824;28;20517;-76
2023/04/23 01:08:38;;;;;;;6.55;2.08;;;;;;;;;;4936390;28;20118;-75
2023/04/23 01:11:05;;;;;;;3.90;2.65;;;;;;;;;;4938725;28;20398;-75
2023/04/23 01:13:31;;;;;;;3.45;2.33;;;;;;;;;;4936118;28;20055;-77
2023/04/23 01:15:57;;;;;;;2.75;2.10;;;;;;;;;;4939453;28;20047;-77
2023/04/23 01:18:23;;;;;;;3.65;2.05;;;;;;;;;;4938695;28;20032;-77
2023/04/23 01:20:49;;;;;;;2.90;2.30;;;;;;;;;;4937665;28;20050;-76
2023/04/23 01:23:16;;;;;;;2.88;2.13;;;;;;;;;;4940504;28;20019;-76
2023/04/23 01:25:42;;;;;;;3.47;2.28;;;;;;;;;;4911654;29;20035;-77
2023/04/23 01:28:08;;;;;;;4.30;2.65;;;;;;;;;;4939561;28;20033;-77
2023/04/23 01:30:35;;;;;;;12.95;2.10;;;;;;;;;;4941184;28;20035;-76
2023/04/23 01:33:01;;;;;;;3.15;2.33;;;;;;;;;;4936599;28;20126;-76
2023/04/23 01:35:28;;;;;;;5.07;2.72;;;;;;;;;;4921349;28;20503;-76
2023/04/23 01:37:55;;;;;;;3.88;2.60;;;;;;;;;;4942946;28;20039;-76
2023/04/23 01:40:21;;;;;;;3.60;2.20;;;;;;;;;;4934165;28;20031;-77
2023/04/23 01:42:48;;;;;;;3.10;2.20;;;;;;;;;;4937426;28;20114;-76
2023/04/23 01:45:16;;;;;;;3.50;2.03;;;;;;;;;;4938912;28;21237;-76
2023/04/23 01:47:42;;;;;;;3.78;2.20;;;;;;;;;;4937132;28;20028;-76
2023/04/23 01:50:08;;;;;;;3.97;2.25;;;;;;;;;;4940427;28;20027;-77
2023/04/23 01:52:35;;;;;;;5.70;2.80;;;;;;;;;;4938680;28;20093;-77
2023/04/23 01:55:01;;;;;;;3.47;2.50;;;;;;;;;;4938533;28;20027;-77
2023/04/23 01:57:27;;;;;;;3.10;2.30;;;;;;;;;;4939759;28;20671;-77
2023/04/23 01:59:58;;;;;;;3.38;2.15;;;;;;;;;;4941619;28;20050;-77
2023/04/23 02:02:24;;;;;;;3.83;2.70;;;;;;;;;;4937592;28;20155;-77
2023/04/23 02:04:52;;;;;;;2.65;2.15;;;;;;;;;;4909156;28;20062;-77
2023/04/23 02:07:18;;;;;;;2.60;2.15;;;;;;;;;;4939411;28;20098;-76
2023/04/23 02:09:44;;;;;;;2.78;2.28;;;;;;;;;;4939902;28;20023;-77
2023/04/23 02:12:10;;;;;;;3.53;1.90;;;;;;;;;;4935010;28;20051;-77
2023/04/23 02:14:36;;;;;;;3.25;2.35;;;;;;;;;;4936608;28;20067;-77
2023/04/23 02:17:02;;;;;;;5.88;2.30;;;;;;;;;;4937079;28;20039;-78
2023/04/23 02:19:33;;;;;;;3.95;2.45;;;;;;;;;;4935977;28;20042;-77
2023/04/23 02:21:59;;;;;;;4.32;2.08;;;;;;;;;;4939111;28;20141;-78
2023/04/23 02:24:25;;;;;;;3.15;2.03;;;;;;;;;;4938298;28;20035;-78
2023/04/23 02:26:51;;;;;;;2.20;1.85;;;;;;;;;;4935261;28;20777;-78
2023/04/23 02:29:17;;;;;;;3.15;2.10;;;;;;;;;;4939590;28;20363;-77
2023/04/23 02:31:43;;;;;;;3.88;2.22;;;;;;;;;;4938939;28;20398;-78
2023/04/23 02:34:09;;;;;;;3.22;2.30;;;;;;;;;;4937417;28;20047;-78
2023/04/23 02:36:35;;;;;;;4.60;2.10;;;;;;;;;;4936211;28;20182;-79
2023/04/23 02:39:01;;;;;;;2.83;2.08;;;;;;;;;;4938056;28;20366;-79
2023/04/23 02:41:27;;;;;;;5.10;2.20;;;;;;;;;;4939345;28;20039;-78
2023/04/23 02:43:53;;;;;;;3.97;2.50;;;;;;;;;;4938405;28;20035;-78
2023/04/23 02:46:19;;;;;;;4.03;2.65;;;;;;;;;;4940096;28;20042;-78
2023/04/23 02:48:45;;;;;;;3.28;2.40;;;;;;;;;;4936151;28;20058;-78
2023/04/23 02:51:12;;;;;;;3.40;2.25;;;;;;;;;;4937659;28;20110;-78
2023/04/23 02:53:38;;;;;;;2.25;1.73;;;;;;;;;;4937044;28;20081;-77
2023/04/23 02:56:04;;;;;;;3.08;2.05;;;;;;;;;;4935442;28;20031;-78
2023/04/23 02:58:31;;;;;;;2.72;2.20;;;;;;;;;;4936789;28;20023;-78
2023/04/23 03:00:57;;;;;;;3.95;2.30;;;;;;;;;;4940094;28;20408;-79
2023/04/23 03:03:25;;;;;;;3.80;2.05;;;;;;;;;;4939230;28;20086;-78
2023/04/23 03:05:51;;;;;;;6.55;1.83;;;;;;;;;;4938047;28;20510;-78
2023/04/23 03:08:17;;;;;;;2.20;1.80;;;;;;;;;;4934587;28;20584;-78
2023/04/23 03:10:43;;;;;;;3.83;2.10;;;;;;;;;;4935779;28;20062;-78
2023/04/23 03:13:09;;;;;;;3.00;1.98;;;;;;;;;;4939292;28;20046;-78
2023/04/23 03:15:35;;;;;;;3.78;2.38;;;;;;;;;;4936274;28;20058;-78
2023/04/23 03:18:03;;;;;;;5.03;2.28;;;;;;;;;;4936009;28;20071;-79
2023/04/23 03:20:29;;;;;;;2.95;1.98;;;;;;;;;;4936162;28;20118;-78
2023/04/23 03:22:55;;;;;;;3.33;1.90;;;;;;;;;;4936350;28;20031;-78
2023/04/23 03:25:23;;;;;;;4.20;1.70;;;;;;;;;;4938253;28;20031;-78
2023/04/23 03:27:49;;;;;;;2.13;1.70;;;;;;;;;;4937744;28;20034;-79
2023/04/23 03:30:15;;;;;;;2.83;2.13;;;;;;;;;;4936428;28;20390;-78
2023/04/23 03:32:41;;;;;;;1.83;1.58;;;;;;;;;;4934686;28;20405;-78
2023/04/23 03:35:08;;;;;;;3.45;1.98;;;;;;;;;;4935475;28;20031;-78
2023/04/23 03:37:34;;;;;;;3.28;2.30;;;;;;;;;;4939216;28;20066;-78
2023/04/23 03:40:06;;;;;;;3.40;2.10;;;;;;;;;;4938155;28;20106;-77
2023/04/23 03:42:32;;;;;;;2.92;1.90;;;;;;;;;;4940801;28;20054;-78
2023/04/23 03:44:58;;;;;;;3.47;2.15;;;;;;;;;;4933113;28;20144;-78
2023/04/23 03:47:25;;;;;;;3.13;2.17;;;;;;;;;;4934668;28;20035;-77
2023/04/23 03:49:51;;;;;;;2.53;2.05;;;;;;;;;;4938735;28;20355;-77
2023/04/23 03:52:17;;;;;;;2.88;2.08;;;;;;;;;;4935821;28;20022;-78
2023/04/23 03:54:43;;;;;;;2.88;2.00;;;;;;;;;;4938005;28;20035;-77
2023/04/23 03:57:11;;;;;;;2.60;1.77;;;;;;;;;;4936524;28;20024;-78
2023/04/23 03:59:37;;;;;;;3.67;2.15;;;;;;;;;;4935860;28;20116;-78
2023/04/23 04:02:03;;;;;;;3.38;2.00;;;;;;;;;;4937768;28;20036;-78
2023/04/23 04:04:29;;;;;;;3.15;1.92;;;;;;;;;;4936153;28;20094;-77
2023/04/23 04:06:55;;;;;;;2.88;2.00;;;;;;;;;;4935395;28;20162;-78
2023/04/23 04:09:21;;;;;;;2.33;1.98;;;;;;;;;;4933620;28;20043;-77
2023/04/23 04:11:47;;;;;;;2.75;1.90;;;;;;;;;;4938470;28;20031;-78
2023/04/23 04:14:13;;;;;;;3.20;2.22;;;;;;;;;;4935703;28;20161;-78
2023/04/23 04:16:39;;;;;;;3.50;2.20;;;;;;;;;;4932697;28;20027;-78
2023/04/23 04:19:06;;;;;;;2.65;2.25;;;;;;;;;;4935492;28;20031;-78
2023/04/23 04:21:32;;;;;;;6.97;2.25;;;;;;;;;;4937014;28;20035;-77
2023/04/23 04:24:00;;;;;;;1.98;1.77;;;;;;;;;;4938537;28;20828;-78
2023/04/23 04:26:26;;;;;;;3.47;2.22;;;;;;;;;;4934563;28;20065;-78
2023/04/23 04:28:52;;;;;;;2.58;1.80;;;;;;;;;;4936545;28;22028;-78
2023/04/23 04:31:22;;;;;;;2.70;1.90;;;;;;;;;;4932081;28;20089;-78
2023/04/23 04:33:48;;;;;;;2.70;1.77;;;;;;;;;;4938348;28;20027;-78
2023/04/23 04:36:14;;;;;;;3.42;2.25;;;;;;;;;;4937599;28;20034;-78
2023/04/23 04:38:40;;;;;;;2.60;2.05;;;;;;;;;;4934057;28;20047;-78
2023/04/23 04:41:06;;;;;;;3.55;2.03;;;;;;;;;;4937441;28;20042;-78
2023/04/23 04:43:33;;;;;;;2.45;1.63;;;;;;;;;;4939095;28;20046;-78
2023/04/23 04:45:59;;;;;;;3.38;1.90;;;;;;;;;;4941070;28;20073;-78
2023/04/23 04:48:25;;;;;;;3.58;1.70;;;;;;;;;;4940421;28;20027;-78
2023/04/23 04:50:51;;;;;;;2.28;1.85;;;;;;;;;;4938886;28;20118;-78
2023/04/23 04:53:17;;;;;;;1.77;1.50;;;;;;;;;;4942003;28;20126;-78
2023/04/23 04:55:43;;;;;;;4.13;1.80;;;;;;;;;;4939671;28;20024;-78
2023/04/23 04:58:09;;;;;;;3.50;1.90;;;;;;;;;;4939680;28;20022;-78
2023/04/23 05:00:35;;;;;;;3.47;2.38;;;;;;;;;;4936691;28;20042;-78
2023/04/23 05:03:01;;;;;;;2.65;1.90;;;;;;;;;;4939563;28;20062;-79
2023/04/23 05:05:27;;;;;;;3.15;2.08;;;;;;;;;;4940111;28;20138;-78
2023/04/23 05:07:54;;;;;;;4.05;2.30;;;;;;;;;;4940462;28;20070;-78
2023/04/23 05:10:20;;;;;;;3.60;2.10;;;;;;;;;;4938158;28;20054;-78
2023/04/23 05:12:46;;;;;;;2.38;1.75;;;;;;;;;;4939427;28;20033;-78
2023/04/23 05:15:13;;;;;;;2.38;1.83;;;;;;;;;;4937433;28;20031;-78
2023/04/23 05:17:40;;;;;;;2.67;1.80;;;;;;;;;;4939948;28;20678;-78
2023/04/23 05:20:09;;;;;;;2.53;1.98;;;;;;;;;;4940346;28;20027;-78
2023/04/23 05:22:58;;;;;;;2.25;1.58;;;;;;;;;;4938446;28;20122;-78
2023/04/23 05:25:24;;;;;;;1.83;1.40;;;;;;;;;;4937063;28;20050;-78
2023/04/23 05:27:50;;;;;;;2.42;1.60;;;;;;;;;;4937730;28;20042;-78
2023/04/23 05:30:16;;;;;;;2.50;1.83;;;;;;;;;;4937094;28;20047;-78
2023/04/23 05:32:42;;;;;;;2.33;1.90;;;;;;;;;;4937897;28;20035;-78
2023/04/23 05:35:08;;;;;;;2.70;1.95;;;;;;;;;;4941249;28;20405;-78
2023/04/23 05:37:34;;;;;;;2.42;1.73;;;;;;;;;;4940150;28;20031;-78
2023/04/23 05:40:01;;;;;;;1.35;1.25;;;;;;;;;;4937854;28;20035;-78
2023/04/23 05:42:27;;;;;;;1.67;1.52;;;;;;;;;;4943567;28;20023;-78
2023/04/23 05:44:53;;;;;;;1.85;1.42;;;;;;;;;;4938081;28;20478;-78
2023/04/23 05:47:20;;;;;;;2.17;1.70;;;;;;;;;;4937927;28;20765;-78
2023/04/23 05:49:46;;;;;;;3.58;1.98;;;;;;;;;;4934773;28;20035;-78
2023/04/23 05:52:12;;;;;;;2.38;1.88;;;;;;;;;;4938102;28;20052;-78
2023/04/23 05:54:38;;;;;;;1.63;1.45;;;;;;;;;;4937100;28;20035;-78
2023/04/23 05:57:04;;;;;;;1.73;1.20;;;;;;;;;;4942769;28;20046;-78
2023/04/23 05:59:31;;;;;;;2.50;1.58;;;;;;;;;;4940858;28;20031;-78
2023/04/23 06:01:57;;;;;;;2.83;1.98;;;;;;;;;;4938469;28;20039;-78
2023/04/23 06:04:23;;;;;;;2.03;1.60;;;;;;;;;;4940941;28;20161;-78
2023/04/23 06:06:49;;;;;;;2.95;1.75;;;;;;;;;;4939856;28;20051;-78
2023/04/23 06:09:15;;;;;;;2.28;1.48;;;;;;;;;;4939508;28;20610;-78
2023/04/23 06:11:41;;;;;;;2.00;1.50;;;;;;;;;;4941149;28;20058;-78
2023/04/23 06:14:07;;;;;;;1.65;1.45;;;;;;;;;;4939984;28;20451;-77
2023/04/23 06:16:33;;;;;;;3.17;1.90;;;;;;;;;;4937700;28;20074;-78
2023/04/23 06:18:59;;;;;;;1.80;1.58;;;;;;;;;;4936445;28;20046;-78
2023/04/23 06:21:26;;;;;;;2.08;1.65;;;;;;;;;;4937084;28;20039;-78
2023/04/23 06:23:52;;;;;;;2.85;2.05;;;;;;;;;;4938237;28;20031;-78
2023/04/23 06:26:18;;;;;;;1.77;1.45;;;;;;;;;;4938445;28;20042;-78
2023/04/23 06:28:45;;;;;;;1.60;1.30;;;;;;;;;;4937159;28;20039;-79
2023/04/23 06:31:11;;;;;;;2.53;1.80;;;;;;;;;;4936999;28;20542;-79
2023/04/23 06:33:37;;;;;;;2.65;1.67;;;;;;;;;;4921457;29;20272;-78
2023/04/23 06:36:03;;;;;;;1.83;1.40;;;;;;;;;;4940368;28;20015;-78
2023/04/23 06:38:29;;;;;;;2.33;1.60;;;;;;;;;;4939510;28;20724;-80
2023/04/23 06:40:55;;;;;;;2.83;1.63;;;;;;;;;;4937661;28;20030;-78
2023/04/23 06:43:21;;;;;;;5.07;1.77;;;;;;;;;;4941476;28;20375;-78
2023/04/23 06:45:48;;;;;;;3.10;1.52;;;;;;;;;;4935426;28;20083;-79
2023/04/23 06:48:15;;;;;;;1.92;1.58;;;;;;;;;;4937744;28;20082;-78
2023/04/23 06:50:41;;;;;;;2.03;1.45;;;;;;;;;;4944260;28;20027;-78
2023/04/23 06:53:07;;;;;;;1.73;1.40;;;;;;;;;;4941064;28;20580;-78
2023/04/23 06:55:33;;;;;;;2.38;1.48;;;;;;;;;;4938005;28;20035;-78
2023/04/23 06:57:59;;;;;;;2.28;1.75;;;;;;;;;;4940071;28;20498;-78
2023/04/23 07:00:25;;;;;;;1.67;1.58;;;;;;;;;;4938308;28;20549;-78
2023/04/23 07:02:51;;;;;;;1.98;1.58;;;;;;;;;;4938318;28;20030;-78
2023/04/23 07:05:18;;;;;;;1.85;1.40;;;;;;;;;;4935486;28;20057;-77
2023/04/23 07:07:44;;;;;;;2.63;1.88;;;;;;;;;;4935978;28;20042;-78
2023/04/23 07:10:11;;;;;;;2.42;1.63;;;;;;;;;;4935977;28;20031;-81
2023/04/23 07:12:37;;;;;;;2.38;1.48;;;;;;;;;;4938233;28;20445;-85
2023/04/23 07:15:04;;;;;;;2.40;1.55;;;;;;;;;;4934659;28;20131;-93
2023/04/23 07:17:30;;;;;;;2.15;1.67;;;;;;;;;;4941769;28;20027;-85
2023/04/23 07:19:56;;;;;;;1.42;1.33;;;;;;;;;;4939687;28;20498;-87
2023/04/23 07:22:23;;;;;;;2.13;1.48;;;;;;;;;;4936977;28;20528;-85
2023/04/23 07:24:49;;;;;;;2.67;1.60;;;;;;;;;;4935972;28;20481;-75
2023/04/23 07:27:15;;;;;;;2.28;1.33;;;;;;;;;;4939693;28;20035;-78
2023/04/23 07:29:41;;;;;;;2.00;1.45;;;;;;;;;;4936769;28;20038;-80
2023/04/23 07:32:07;;;;;;;2.45;1.60;;;;;;;;;;4935930;28;20058;-82
2023/04/23 07:34:35;;;;;;;1.48;1.15;;;;;;;;;;4936594;28;20039;-83
2023/04/23 07:37:01;;;;;;;2.03;1.60;;;;;;;;;;4941299;28;20026;-89
2023/04/23 07:39:27;;;;;;;2.35;1.40;;;;;;;;;;4939278;28;20712;-90
2023/04/23 07:41:53;;;;;;;1.83;1.40;;;;;;;;;;4938829;28;20027;-81
2023/04/23 07:44:19;;;;;;;1.75;1.33;;;;;;;;;;4937697;28;20105;-83
2023/04/23 07:46:45;;;;;;;3.40;1.40;;;;;;;;;;4942994;28;20035;-88
2023/04/23 07:49:14;;;;;;;1.83;1.60;;;;;;;;;;4942197;28;20479;-84
2023/04/23 07:51:40;;;;;;;1.90;0.95;;;;;;;;;;4931950;28;20031;-85
2023/04/23 07:54:06;;;;;;;1.50;1.27;;;;;;;;;;4938909;28;20075;-77
2023/04/23 07:56:32;;;;;;;1.52;1.23;;;;;;;;;;4939970;28;20031;-82
2023/04/23 07:58:58;;;;;;;2.25;1.20;;;;;;;;;;4933780;28;20035;-79
2023/04/23 08:01:25;;;;;;;1.58;1.25;;;;;;;;;;4937369;28;20162;-81
2023/04/23 08:03:51;;;;;;;1.35;1.20;;;;;;;;;;4931145;28;20031;-82
2023/04/23 08:06:17;;;;;;;2.45;1.27;;;;;;;;;;4935253;28;20042;-79
2023/04/23 08:08:43;;;;;;;1.98;1.67;;;;;;;;;;4937684;28;20806;-82
2023/04/23 08:11:10;;;;;;;2.17;1.30;;;;;;;;;;4940533;28;20122;-79
2023/04/23 08:13:36;;;;;;;1.83;1.38;;;;;;;;;;4939180;28;20033;-82
2023/04/23 08:16:02;;;;;;;1.92;1.30;;;;;;;;;;4935639;28;20026;-79
2023/04/23 08:18:28;;;;;;;1.92;1.40;;;;;;;;;;4913064;29;20059;-78
2023/04/23 08:20:55;;;;;;;1.73;1.30;;;;;;;;;;4943723;28;20042;-81
2023/04/23 08:23:21;;;;;;;2.17;1.20;;;;;;;;;;4941821;28;20415;-81
2023/04/23 08:25:47;;;;;;;1.52;1.30;;;;;;;;;;4934204;28;20046;-80
2023/04/23 08:28:13;;;;;;;3.78;1.52;;;;;;;;;;4940769;28;20059;-80
2023/04/23 08:30:39;;;;;;;1.83;1.45;;;;;;;;;;4937498;28;20055;-84
2023/04/23 08:33:05;;;;;;;1.30;0.95;;;;;;;;;;4937526;28;20070;-77
2023/04/23 08:35:31;;;;;;;1.80;1.30;;;;;;;;;;4936233;28;20028;-76
2023/04/23 08:37:57;;;;;;;1.45;1.20;;;;;;;;;;4934417;28;20573;-83
2023/04/23 08:40:23;;;;;;;1.63;1.42;;;;;;;;;;4938544;28;20146;-78
2023/04/23 08:42:55;;;;;;;1.50;1.40;;;;;;;;;;4938414;28;20042;-83
2023/04/23 08:45:21;;;;;;;2.65;1.35;;;;;;;;;;4940442;28;20032;-82
2023/04/23 08:47:47;;;;;;;3.88;1.42;;;;;;;;;;4935079;28;20099;-79
2023/04/23 08:50:17;;;;;;;2.83;1.70;;;;;;;;;;4940672;28;20536;-79
2023/04/23 08:52:52;;;;;;;1.40;1.15;;;;;;;;;;4932986;28;20043;-76
2023/04/23 08:55:19;;;;;;;1.38;1.15;;;;;;;;;;4928451;28;20027;-80
2023/04/23 08:57:45;;;;;;;1.17;1.08;;;;;;;;;;4935752;28;20028;-78
2023/04/23 09:00:12;;;;;;;2.15;1.40;;;;;;;;;;4938387;28;20245;-78
2023/04/23 09:02:42;;;;;;;2.13;1.50;;;;;;;;;;4938338;28;20035;-78
2023/04/23 09:05:08;;;;;;;1.50;1.38;;;;;;;;;;4934208;28;20043;-78
2023/04/23 09:07:35;;;;;;;1.48;1.30;;;;;;;;;;4935756;28;20094;-78
2023/04/23 09:10:05;;;;;;;1.20;1.00;;;;;;;;;;4936735;28;20059;-78
2023/04/23 09:12:31;;;;;;;2.53;1.63;;;;;;;;;;4948455;28;20019;-78
2023/04/23 09:14:57;;;;;;;1.13;1.02;;;;;;;;;;4937782;28;20042;-78
2023/04/23 09:17:27;;;;;;;5.30;1.83;;;;;;;;;;4936849;28;20042;-79
2023/04/23 09:19:53;;;;;;;2.20;1.50;;;;;;;;;;4935751;28;20497;-79
2023/04/23 09:22:38;;;;;;;1.58;1.27;;;;;;;;;;4940546;28;20560;-80
2023/04/23 09:25:05;;;;;;;1.10;0.98;;;;;;;;;;4939856;28;20490;-79
2023/04/23 09:27:31;;;;;;;7.75;1.80;;;;;;;;;;4942682;28;20033;-78
2023/04/23 09:29:58;;;;;;;1.85;1.40;;;;;;;;;;4940405;28;20094;-79
2023/04/23 09:32:34;;;;;;;2.53;1.60;;;;;;;;;;4944988;28;20824;-81
2023/04/23 09:35:02;;;;;;;2.08;1.50;;;;;;;;;;4946490;28;20657;-80
2023/04/23 09:37:28;;;;;;;3.22;2.05;;;;;;;;;;4944226;28;20019;-78
2023/04/23 09:39:55;;;;;;;4.40;2.15;;;;;;;;;;4935617;28;20067;-76
2023/04/23 09:42:23;;;;;;;2.63;1.83;;;;;;;;;;4942831;28;21022;-81
2023/04/23 09:44:56;;;;;;;4.00;1.83;;;;;;;;;;4941894;28;20023;-81
2023/04/23 09:47:22;;;;;;;1.83;1.55;;;;;;;;;;4945547;28;20138;-80
2023/04/23 09:49:49;;;;;;;2.08;1.23;;;;;;;;;;4938402;28;20122;-84
2023/04/23 09:52:15;;;;;;;1.75;1.50;;;;;;;;;;4940636;28;20102;-76
2023/04/23 09:54:42;;;;;;;1.27;1.13;;;;;;;;;;4926226;28;20035;-79
2023/04/23 09:57:08;;;;;;;1.27;1.17;;;;;;;;;;4943208;28;20024;-79
2023/04/23 09:59:37;;;;;;;1.52;1.15;;;;;;;;;;4941914;28;20042;-81
2023/04/23 10:02:06;;;;;;;1.35;0.93;;;;;;;;;;4933582;28;20035;-75
2023/04/23 10:04:33;;;;;;;1.55;1.00;;;;;;;;;;4934555;28;20086;-77
2023/04/23 10:07:03;;;;;;;1.15;0.98;;;;;;;;;;4938846;28;20038;-75
2023/04/23 10:09:30;;;;;;;0.88;0.85;;;;;;;;;;4939642;28;20039;-80
2023/04/23 10:12:01;;;;;;;1.05;0.95;;;;;;;;;;4938345;28;20027;-78
2023/04/23 10:14:27;;;;;;;1.40;1.05;;;;;;;;;;4936771;28;20054;-81
2023/04/23 10:16:57;;;;;;;0.77;0.75;;;;;;;;;;4939647;28;20027;-79
2023/04/23 10:19:24;;;;;;;0.82;0.63;;;;;;;;;;4944826;28;20501;-77
2023/04/23 10:22:04;;;;;;;1.38;1.02;;;;;;;;;;4936255;28;20042;-78
2023/04/23 10:24:32;;;;;;;1.05;0.90;;;;;;;;;;4937173;28;20114;-78
2023/04/23 10:27:01;;;;;;;1.27;0.95;;;;;;;;;;4939990;28;20026;-75
2023/04/23 10:29:28;;;;;;;0.50;0.50;;;;;;;;;;4944493;28;20039;-78
2023/04/23 10:31:56;;;;;;;1.27;1.08;;;;;;;;;;4937084;28;20035;-77
2023/04/23 10:34:24;;;;;;;1.50;1.02;;;;;;;;;;4935033;28;20418;-80
2023/04/23 10:36:50;;;;;;;1.10;0.90;;;;;;;;;;4941714;28;20033;-80
2023/04/23 10:39:17;;;;;;;0.80;0.80;;;;;;;;;;4941498;28;20034;-77
2023/04/23 10:41:43;;;;;;;1.02;0.60;;;;;;;;;;4940887;28;20474;-76
2023/04/23 10:44:15;;;;;;;1.42;1.20;;;;;;;;;;4939656;28;20027;-77
2023/04/23 10:46:49;;;;;;;1.30;1.08;;;;;;;;;;4938231;28;20043;-82
2023/04/23 10:49:15;;;;;;;2.33;1.25;;;;;;;;;;4941946;28;20074;-79
2023/04/23 10:51:42;;;;;;;1.30;1.02;;;;;;;;;;4939895;28;20179;-85
2023/04/23 10:54:10;;;;;;;1.52;1.00;;;;;;;;;;4939064;28;20118;-82
2023/04/23 10:56:57;;;;;;;1.85;1.23;;;;;;;;;;4936291;28;20838;-81
2023/04/23 10:59:23;;;;;;;1.15;1.05;;;;;;;;;;4937128;28;20147;-79
2023/04/23 11:01:50;;;;;;;1.60;1.00;;;;;;;;;;4935426;28;20086;-78
2023/04/23 11:04:20;;;;;;;1.30;1.20;;;;;;;;;;4935319;28;20047;-80
2023/04/23 11:06:50;;;;;;;1.80;1.37;;;;;;;;;;4942461;28;20118;-78
2023/04/23 11:09:30;;;;;;;1.75;1.35;;;;;;;;;;4945269;28;20696;-81
2023/04/23 11:12:00;;;;;;;2.15;1.27;;;;;;;;;;4940119;28;20425;-80
2023/04/23 11:14:42;;;;;;;1.40;1.02;;;;;;;;;;4936345;28;20130;-79
2023/04/23 11:17:11;;;;;;;2.00;1.40;;;;;;;;;;4920887;29;20509;-80
2023/04/23 11:19:37;;;;;;;1.77;1.25;;;;;;;;;;4931509;28;20027;-80
2023/04/23 11:22:07;;;;;;;1.52;0.90;;;;;;;;;;4934085;28;20123;-79
2023/04/23 11:24:40;;;;;;;1.63;1.40;;;;;;;;;;4930937;28;20038;-78
2023/04/23 11:27:07;;;;;;;1.67;1.40;;;;;;;;;;4942405;28;20078;-80
2023/04/23 11:29:33;;;;;;;2.53;1.00;;;;;;;;;;4940640;28;20043;-80
2023/04/23 11:32:02;;;;;;;1.02;0.93;;;;;;;;;;4946117;28;20086;-81
2023/04/23 11:34:28;;;;;;;1.42;1.10;;;;;;;;;;4946692;28;20031;-82
2023/04/23 11:36:54;;;;;;;1.45;0.82;;;;;;;;;;4946250;28;20023;-80
2023/04/23 11:39:22;;;;;;;1.58;1.05;;;;;;;;;;4943559;28;20031;-80
2023/04/23 11:41:49;;;;;;;1.13;0.85;;;;;;;;;;4941867;28;20545;-79
2023/04/23 11:44:15;;;;;;;1.98;0.93;;;;;;;;;;4938419;28;20027;-80
2023/04/23 11:46:41;;;;;;;2.35;1.27;;;;;;;;;;4942858;29;20079;-80
2023/04/23 11:49:10;;;;;;;2.50;1.23;;;;;;;;;;4942308;28;20126;-80
2023/04/23 11:51:41;;;;;;;0.95;0.85;;;;;;;;;;4940147;28;20166;-81
2023/04/23 11:54:07;;;;;;;1.30;1.20;;;;;;;;;;4945901;28;20035;-80
2023/04/23 11:56:34;;;;;;;2.63;1.17;;;;;;;;;;4942557;28;20032;-81
2023/04/23 11:59:03;;;;;;;1.88;1.05;;;;;;;;;;4943277;28;20063;-75
2023/04/23 12:01:44;;;;;;;1.98;1.08;;;;;;;;;;4934493;28;20577;-75
2023/04/23 12:04:11;;;;;;;2.00;1.63;;;;;;;;;;4940040;28;20066;-75
2023/04/23 12:06:37;;;;;;;4.72;1.20;;;;;;;;;;4932313;29;20039;-75
2023/04/23 12:09:03;;;;;;;1.88;1.20;;;;;;;;;;4941778;28;20030;-76
2023/04/23 12:11:29;;;;;;;2.65;1.40;;;;;;;;;;4937437;28;20023;-76
2023/04/23 12:13:57;;;;;;;1.90;1.13;;;;;;;;;;4924843;29;20050;-78
2023/04/23 12:16:40;;;;;;;2.25;1.20;;;;;;;;;;4943846;29;20041;-78
2023/04/23 12:19:13;;;;;;;1.38;0.90;;;;;;;;;;4941089;28;20039;-79
2023/04/23 12:21:48;;;;;;;2.10;1.23;;;;;;;;;;4936780;28;20042;-77
2023/04/23 12:24:14;;;;;;;1.63;1.27;;;;;;;;;;4940318;28;20031;-78
2023/04/23 12:26:42;;;;;;;1.75;1.13;;;;;;;;;;4945309;28;20050;-76
2023/04/23 12:29:08;;;;;;;1.60;1.10;;;;;;;;;;4944176;28;20498;-79
2023/04/23 12:31:37;;;;;;;2.40;1.20;;;;;;;;;;4943342;28;20058;-79
2023/04/23 12:34:09;;;;;;;2.10;1.30;;;;;;;;;;4941757;28;20042;-79
2023/04/23 12:36:36;;;;;;;1.30;1.20;;;;;;;;;;4943491;28;20016;-79
2023/04/23 12:39:19;;;;;;;2.00;1.20;;;;;;;;;;4936205;28;20055;-79
2023/04/23 12:41:45;;;;;;;2.13;1.00;;;;;;;;;;4944032;28;20035;-78
2023/04/23 12:44:11;;;;;;;2.00;0.90;;;;;;;;;;4945043;28;20027;-79
2023/04/23 12:46:37;;;;;;;1.40;1.05;;;;;;;;;;4939096;28;20667;-79
2023/04/23 12:49:03;;;;;;;1.80;1.30;;;;;;;;;;4936158;28;20067;-78
2023/04/23 12:51:29;;;;;;;1.67;1.25;;;;;;;;;;4939127;28;20058;-77
2023/04/23 12:54:11;;;;;;;1.60;1.02;;;;;;;;;;4943202;28;20024;-77
2023/04/23 12:56:37;;;;;;;0.73;0.73;;;;;;;;;;4938666;28;20058;-76
2023/04/23 12:59:04;;;;;;;1.45;1.00;;;;;;;;;;4942168;28;20043;-77
2023/04/23 13:01:30;;;;;;;4.55;1.08;;;;;;;;;;4936905;28;20058;-77
2023/04/23 13:03:57;;;;;;;1.35;1.25;;;;;;;;;;4947053;28;20434;-77
2023/04/23 13:06:25;;;;;;;1.52;1.00;;;;;;;;;;4944186;28;20047;-77
2023/04/23 13:08:51;;;;;;;1.65;1.10;;;;;;;;;;4946328;28;20027;-78
2023/04/23 13:11:17;;;;;;;1.40;0.90;;;;;;;;;;4942421;28;20047;-77
2023/04/23 13:13:43;;;;;;;2.08;1.25;;;;;;;;;;4942590;28;20027;-77
2023/04/23 13:16:09;;;;;;;1.13;0.90;;;;;;;;;;4943032;29;20019;-77
2023/04/23 13:18:35;;;;;;;0.63;0.63;;;;;;;;;;4947108;28;20027;-78
2023/04/23 13:21:01;;;;;;;3.00;0.77;;;;;;;;;;4942243;28;20390;-80
2023/04/23 13:23:27;;;;;;;1.00;0.90;;;;;;;;;;4938476;28;20035;-76
2023/04/23 13:25:53;;;;;;;0.88;0.80;;;;;;;;;;4943931;28;20361;-76
2023/04/23 13:28:19;;;;;;;1.42;0.90;;;;;;;;;;4946533;28;20032;-80
2023/04/23 13:30:45;;;;;;;1.58;1.15;;;;;;;;;;4944438;28;20024;-77
2023/04/23 13:33:11;;;;;;;2.47;1.60;;;;;;;;;;4942884;28;20019;-78
2023/04/23 13:35:37;;;;;;;0.60;0.60;;;;;;;;;;4935455;28;23684;-77
2023/04/23 13:38:03;;;;;;;1.05;0.75;;;;;;;;;;4944001;28;20313;-80
2023/04/23 13:40:29;;;;;;;1.52;0.80;;;;;;;;;;4933717;28;20126;-76
2023/04/23 13:42:55;;;;;;;1.52;1.00;;;;;;;;;;4942042;28;20027;-76
2023/04/23 13:45:21;;;;;;;1.10;1.00;;;;;;;;;;4942383;28;20058;-77
2023/04/23 13:47:47;;;;;;;2.60;1.25;;;;;;;;;;4942264;28;20261;-77
2023/04/23 13:50:13;;;;;;;1.88;1.20;;;;;;;;;;4944565;28;20039;-77
2023/04/23 13:52:39;;;;;;;5.53;1.85;;;;;;;;;;4943111;28;20028;-79
2023/04/23 13:55:06;;;;;;;3.28;1.83;;;;;;;;;;4943515;28;20110;-76
2023/04/23 13:57:33;;;;;;;5.75;2.10;;;;;;;;;;4945238;28;20030;-77
2023/04/23 13:59:59;;;;;;;8.82;2.20;;;;;;;;;;4941095;28;20042;-75
2023/04/23 14:02:25;;;;;;;5.15;2.00;;;;;;;;;;4946702;28;20062;-77
2023/04/23 14:04:51;;;;;;;4.28;1.30;;;;;;;;;;4944465;28;20138;-78
2023/04/23 14:07:17;;;;;;;3.65;1.70;;;;;;;;;;4945374;28;20109;-77
2023/04/23 14:09:45;;;;;;;1.83;1.27;;;;;;;;;;4939571;28;20041;-77
2023/04/23 14:12:11;;;;;;;6.72;1.52;;;;;;;;;;4938112;28;20019;-78
2023/04/23 14:14:37;;;;;;;3.60;1.70;;;;;;;;;;4940205;28;20028;-78
2023/04/23 14:17:30;;;;;;;1.42;0.98;;;;;;;;;;4938369;28;20031;-77
2023/04/23 14:19:56;;;;;;;3.63;1.13;;;;;;;;;;4933287;28;20054;-77
2023/04/23 14:22:22;;;;;;;0.98;0.95;;;;;;;;;;4933109;28;20031;-78
2023/04/23 14:24:56;;;;;;;0.85;0.85;;;;;;;;;;4935334;28;20144;-77
2023/04/23 14:27:22;;;;;;;1.15;0.88;;;;;;;;;;4939474;28;20085;-78
2023/04/23 14:29:56;;;;;;;1.85;1.08;;;;;;;;;;4921165;29;20035;-77
2023/04/23 14:32:22;;;;;;;1.67;0.88;;;;;;;;;;4937813;28;20027;-76
2023/04/23 14:34:48;;;;;;;1.13;0.82;;;;;;;;;;4939407;28;20063;-76
2023/04/23 14:37:16;;;;;;;2.80;1.10;;;;;;;;;;4933372;28;20058;-77
2023/04/23 14:39:42;;;;;;;1.92;0.80;;;;;;;;;;4932299;28;21203;-77
2023/04/23 14:42:08;;;;;;;1.17;0.82;;;;;;;;;;4940828;28;20031;-82